Kelowna Airport
CYLW : now visible

Airfield :











YOU CAN JOIN US ON...

 
LOGIN :

Register | Disclaimer

   EN    FR    IT 

 









Legend :    VFR   Marginal VFR   IFR   Intensive IFR   Very Intensive IFR
Visi :
Ceiling :
>= 8 km
>= 3000ft
5 to 8 km
1000 to 3000 ft
1500m to 5 km
500 to 1000 ft
800 to 1500m
200 to 500 ft
< 800m
< 200 ft
Symbols :   Thunderstorms  Fog  Heavy snow  Heavy precipitations  Wind > 20 kt






- Airport Elevation : 1409 ft
- IATA code : YLW


CYLW - Kelowna

CURRENT METAR :
  • 160000Z AUTO 19003KT 9SM CLR 04/M03 A3033 RMK SLP292

EXPIRED METARs :
  • 152300Z AUTO 19006KT 9SM CLR 05/M02 A3031 RMK SLP285
  • 152200Z AUTO 17006KT 9SM CLR 06/M03 A3030 RMK SLP281

TAF TAF CYLW
Valid from the 15 at 19:00 until the 16 at 07:00 UTC


151838Z 1519/1607 VRB03KT P6SM FEW060 RMK FCST BASED ON AUTO OBS. NXT FCST BY 160100Z
CZVR FIR / North America



MET'MAP, your aeronautical weather chart ! - Copyright ORBIFLY December 2007 - Disclaimer

ORBIFLY MET'MAP TEAM :

Programming & Development : Alexandra Zaïnal
Concept & original design : Baudouin d'Aumeries
Assistance for programming : Marc-Olivier Méhu
Technical & hardware support : Manuel Goepfert

Contact : metmap@orbifly.com




SOURCES & CREDITS :

   NOAA       Earth
Advisory